createdAt,value
2019-02-21T00:01:04.306Z,101937.05
2019-02-21T00:02:16.550Z,101936.18
2019-02-21T00:03:23.297Z,101926.34
2019-02-21T00:04:30.308Z,101933.55
2019-02-21T00:05:37.002Z,101923.75
2019-02-21T00:06:44.390Z,101928.44
2019-02-21T00:07:51.174Z,101925.84
2019-02-21T00:08:58.343Z,101927.55
2019-02-21T00:10:05.641Z,101929.69
2019-02-21T00:11:12.353Z,101922.08
2019-02-21T00:12:19.126Z,101927.97
2019-02-21T00:13:26.268Z,101924.56
2019-02-21T00:14:33.024Z,101927.97
2019-02-21T00:15:39.702Z,101926.27
2019-02-21T00:16:46.731Z,101926.67
2019-02-21T00:17:53.810Z,101921.11
2019-02-21T00:19:00.493Z,101920.28
2019-02-21T00:20:08.005Z,101919.42
2019-02-21T00:21:15.047Z,101924.54
2019-02-21T00:22:21.855Z,101922.80
2019-02-21T00:23:28.535Z,101924.51
2019-02-21T00:24:35.229Z,101921.98
2019-02-21T00:25:42.641Z,101926.21
2019-02-21T00:26:49.755Z,101921.99
2019-02-21T00:27:56.848Z,101917.75
2019-02-21T00:29:03.871Z,101924.56
2019-02-21T00:30:10.608Z,101921.58
2019-02-21T00:31:17.797Z,101921.18
2019-02-21T00:32:25.245Z,101925.02
2019-02-21T00:33:32.288Z,101931.37
2019-02-21T00:34:39.511Z,101926.77
2019-02-21T00:35:46.648Z,101931.86
2019-02-21T00:36:53.478Z,101936.97
2019-02-21T00:38:00.153Z,101942.11
2019-02-21T00:39:08.438Z,101935.73
2019-02-21T00:40:15.244Z,101943.81
2019-02-21T00:41:22.248Z,101946.38
2019-02-21T00:42:30.522Z,101940.43
2019-02-21T00:43:37.501Z,101943.83
2019-02-21T00:44:44.732Z,101943.83
2019-02-21T00:45:51.476Z,101941.67
2019-02-21T00:46:58.835Z,101943.81
2019-02-21T00:48:05.554Z,101950.19
2019-02-21T00:49:12.288Z,101948.48
2019-02-21T00:50:19.794Z,101945.08
2019-02-21T00:51:26.911Z,101951.45
2019-02-21T00:52:33.608Z,101945.95
2019-02-21T00:53:40.707Z,101947.66
2019-02-21T00:54:47.396Z,101945.96
2019-02-21T00:55:54.339Z,101951.47
2019-02-21T00:57:01.343Z,101948.91
2019-02-21T00:58:08.165Z,101948.92
2019-02-21T00:59:15.640Z,101948.09
2019-02-21T01:00:22.302Z,101947.66
2019-02-21T01:01:29.208Z,101950.64
2019-02-21T01:02:35.923Z,101946.38
2019-02-21T01:03:42.662Z,101949.36
2019-02-21T01:04:49.655Z,101959.13
2019-02-21T01:05:56.379Z,101957.00
2019-02-21T01:07:03.187Z,101957.83
2019-02-21T01:08:10.210Z,101955.30
2019-02-21T01:09:16.923Z,101954.01
2019-02-21T01:10:23.601Z,101953.14
2019-02-21T01:11:30.684Z,101954.84
2019-02-21T01:12:37.424Z,101951.01
2019-02-21T01:13:45.054Z,101950.59
2019-02-21T01:14:51.722Z,101953.13
2019-02-21T01:15:58.777Z,101959.11
2019-02-21T01:17:05.806Z,101953.55
2019-02-21T01:18:12.567Z,101956.48
2019-02-21T01:19:19.308Z,101955.22
2019-02-21T01:20:26.011Z,101948.84
2019-02-21T01:21:32.745Z,101958.17
2019-02-21T01:22:40.145Z,101960.70
2019-02-21T01:23:47.360Z,101959.83
2019-02-21T01:24:54.061Z,101963.66
2019-02-21T01:26:00.898Z,101959.43
2019-02-21T01:27:08.264Z,101959.02
2019-02-21T01:28:15.120Z,101956.87
2019-02-21T01:29:22.211Z,101959.37
2019-02-21T01:30:29.106Z,101960.62
2019-02-21T01:31:36.246Z,101962.77
2019-02-21T01:32:43.332Z,101955.09
2019-02-21T01:33:50.423Z,101958.91
2019-02-21T01:34:57.451Z,101958.06
2019-02-21T01:36:04.254Z,101958.89
2019-02-21T01:37:11.352Z,101960.15
2019-02-21T01:38:18.823Z,101959.28
2019-02-21T01:39:25.923Z,101963.55
2019-02-21T01:40:33.184Z,101962.28
2019-02-21T01:41:39.915Z,101963.98
2019-02-21T01:42:46.771Z,101964.41
2019-02-21T01:43:53.752Z,101966.11
2019-02-21T01:45:00.514Z,101957.58
2019-02-21T01:46:07.568Z,101961.41
2019-02-21T01:47:14.817Z,101960.58
2019-02-21T01:48:21.706Z,101959.27
2019-02-21T01:49:28.442Z,101961.80
2019-02-21T01:50:36.035Z,101959.27
2019-02-21T01:51:42.967Z,101965.23
2019-02-21T01:52:49.672Z,101962.70
2019-02-21T01:53:56.346Z,101967.80
2019-02-21T01:55:03.352Z,101966.97
2019-02-21T01:56:10.796Z,101965.24
2019-02-21T01:57:17.497Z,101962.28
2019-02-21T01:58:24.769Z,101968.22
2019-02-21T01:59:31.497Z,101962.72
2019-02-21T02:00:38.776Z,101967.80
2019-02-21T02:01:45.897Z,101965.69
2019-02-21T02:02:52.933Z,101964.83
2019-02-21T02:03:59.733Z,101965.30
2019-02-21T02:05:06.911Z,101969.95
2019-02-21T02:06:13.594Z,101964.45
2019-02-21T02:07:20.276Z,101963.56
2019-02-21T02:08:26.969Z,101963.16
2019-02-21T02:09:34.133Z,101966.13
2019-02-21T02:10:41.007Z,101960.62
2019-02-21T02:11:47.695Z,101963.14
2019-02-21T02:12:54.727Z,101957.19
2019-02-21T02:14:02.174Z,101960.14
2019-02-21T02:15:09.330Z,101958.84
2019-02-21T02:16:16.045Z,101960.92
2019-02-21T02:17:23.237Z,101974.09
2019-02-21T02:18:30.270Z,101972.79
2019-02-21T02:19:37.323Z,101975.80
2019-02-21T02:20:44.152Z,101963.88
2019-02-21T02:21:51.182Z,101973.66
2019-02-21T02:22:58.220Z,101970.65
2019-02-21T02:24:04.895Z,101972.36
2019-02-21T02:25:11.581Z,101972.75
2019-02-21T02:26:18.582Z,101968.91
2019-02-21T02:27:25.314Z,101967.18
2019-02-21T02:28:32.041Z,101972.70
2019-02-21T02:29:38.800Z,101962.06
2019-02-21T02:30:45.697Z,101965.44
2019-02-21T02:31:52.354Z,101967.50
2019-02-21T02:32:59.075Z,101964.94
2019-02-21T02:34:06.278Z,101964.05
2019-02-21T02:35:14.033Z,101961.52
2019-02-21T02:36:21.125Z,101962.36
2019-02-21T02:37:28.274Z,101954.73
2019-02-21T02:38:35.343Z,101961.11
2019-02-21T02:39:42.742Z,101954.72
2019-02-21T02:40:49.411Z,101959.39
2019-02-21T02:41:56.714Z,101961.02
2019-02-21T02:43:03.453Z,101965.25
2019-02-21T02:44:10.504Z,101963.95
2019-02-21T02:45:17.213Z,101963.52
2019-02-21T02:46:23.919Z,101959.68
2019-02-21T02:47:30.616Z,101958.81
2019-02-21T02:48:37.359Z,101961.77
2019-02-21T02:49:44.281Z,101962.61
2019-02-21T02:50:50.964Z,101961.79
2019-02-21T02:51:57.688Z,101961.81
2019-02-21T02:53:05.899Z,101957.11
2019-02-21T02:54:12.834Z,101961.77
2019-02-21T02:55:20.253Z,101955.80
2019-02-21T02:56:26.976Z,101960.90
2019-02-21T02:57:33.995Z,101958.72
2019-02-21T02:58:40.976Z,101956.97
2019-02-21T02:59:47.692Z,101954.82
2019-02-21T03:00:54.420Z,101960.73
2019-02-21T03:02:01.381Z,101961.98
2019-02-21T03:03:08.153Z,101958.59
2019-02-21T03:04:15.288Z,101961.56
2019-02-21T03:05:22.406Z,101955.58
2019-02-21T03:06:29.141Z,101951.70
2019-02-21T03:07:36.111Z,101956.79
2019-02-21T03:08:43.122Z,101951.30
2019-02-21T03:09:50.078Z,101954.70
2019-02-21T03:10:56.784Z,101956.79
2019-02-21T03:12:03.482Z,101955.92
2019-02-21T03:13:10.161Z,101949.98
2019-02-21T03:14:16.879Z,101950.79
2019-02-21T03:15:23.581Z,101949.52
2019-02-21T03:16:30.267Z,101955.87
2019-02-21T03:17:37.300Z,101955.03
2019-02-21T03:18:44.009Z,101956.26
2019-02-21T03:19:50.759Z,101963.89
2019-02-21T03:20:57.491Z,101954.96
2019-02-21T03:22:04.262Z,101961.73
2019-02-21T03:23:10.990Z,101957.89
2019-02-21T03:24:17.674Z,101954.88
2019-02-21T03:25:24.388Z,101955.30
2019-02-21T03:26:31.132Z,101962.91
2019-02-21T03:27:37.823Z,101953.55
2019-02-21T03:28:44.529Z,101959.09
2019-02-21T03:29:51.394Z,101961.64
2019-02-21T03:30:58.127Z,101957.38
2019-02-21T03:32:05.363Z,101957.38
2019-02-21T03:33:12.404Z,101959.45
2019-02-21T03:34:19.167Z,101959.90
2019-02-21T03:35:25.927Z,101960.30
2019-02-21T03:36:32.626Z,101953.89
2019-02-21T03:37:39.321Z,101953.89
2019-02-21T03:38:46.665Z,101955.16
2019-02-21T03:39:53.351Z,101951.75
2019-02-21T03:41:00.306Z,101955.55
2019-02-21T03:42:10.105Z,101955.89
2019-02-21T03:43:17.487Z,101951.63
2019-02-21T03:44:24.233Z,101948.23
2019-02-21T03:45:31.320Z,101950.77
2019-02-21T03:46:38.363Z,101950.31
2019-02-21T03:47:45.305Z,101946.90
2019-02-21T03:48:52.012Z,101952.39
2019-02-21T03:49:59.601Z,101951.11
2019-02-21T03:51:06.585Z,101954.53
2019-02-21T03:52:13.260Z,101957.54
2019-02-21T03:53:20.088Z,101951.20
2019-02-21T03:54:27.314Z,101949.06
2019-02-21T03:55:34.677Z,101954.64
2019-02-21T03:56:41.402Z,101952.10
2019-02-21T03:57:48.287Z,101954.20
2019-02-21T03:58:55.379Z,101947.84
2019-02-21T04:00:02.415Z,101951.23
2019-02-21T04:01:09.812Z,101949.11
2019-02-21T04:02:16.869Z,101953.42
2019-02-21T04:03:23.619Z,101944.54
2019-02-21T04:04:30.299Z,101944.59
2019-02-21T04:05:37.104Z,101945.48
2019-02-21T04:06:43.921Z,101946.33
2019-02-21T04:07:51.823Z,101947.20
2019-02-21T04:08:58.492Z,101941.28
2019-02-21T04:10:06.217Z,101945.55
2019-02-21T04:11:16.601Z,101950.27
2019-02-21T04:12:24.541Z,101953.22
2019-02-21T04:13:31.737Z,101946.91
2019-02-21T04:14:38.697Z,101951.62
2019-02-21T04:15:45.823Z,101947.42
2019-02-21T04:16:52.553Z,101946.19
2019-02-21T04:18:00.246Z,101947.45
2019-02-21T04:19:07.332Z,101951.75
2019-02-21T04:20:14.065Z,101945.80
2019-02-21T04:21:21.097Z,101942.86
2019-02-21T04:22:27.785Z,101946.69
2019-02-21T04:23:34.497Z,101945.86
2019-02-21T04:24:41.503Z,101944.25
2019-02-21T04:25:48.195Z,101946.78
2019-02-21T04:26:55.251Z,101945.03
2019-02-21T04:28:02.277Z,101937.38
2019-02-21T04:29:09.586Z,101944.20
2019-02-21T04:30:16.663Z,101942.95
2019-02-21T04:31:23.360Z,101945.94
2019-02-21T04:32:30.313Z,101936.62
2019-02-21T04:33:36.983Z,101933.64
2019-02-21T04:34:43.707Z,101936.16
2019-02-21T04:35:50.387Z,101938.69
2019-02-21T04:36:57.362Z,101937.00
2019-02-21T04:38:04.609Z,101932.73
2019-02-21T04:39:11.706Z,101931.91
2019-02-21T04:40:18.396Z,101932.28
2019-02-21T04:41:25.163Z,101933.12
2019-02-21T04:42:32.207Z,101933.52
2019-02-21T04:43:39.326Z,101933.52
2019-02-21T04:44:46.027Z,101937.32
2019-02-21T04:45:52.792Z,101930.95
2019-02-21T04:47:00.264Z,101933.91
2019-02-21T04:48:07.269Z,101927.09
2019-02-21T04:49:14.357Z,101929.24
2019-02-21T04:50:21.128Z,101930.91
2019-02-21T04:51:27.826Z,101928.36
2019-02-21T04:52:34.569Z,101935.18
2019-02-21T04:53:41.279Z,101929.63
2019-02-21T04:54:48.332Z,101927.48
2019-02-21T04:55:55.014Z,101936.81
2019-02-21T04:57:02.243Z,101929.17
2019-02-21T04:58:09.129Z,101933.42
2019-02-21T04:59:15.832Z,101930.45
2019-02-21T05:00:22.513Z,101939.78
2019-02-21T05:01:29.198Z,101930.91
2019-02-21T05:02:35.882Z,101935.59
2019-02-21T05:03:43.006Z,101927.09
2019-02-21T05:04:49.718Z,101928.81
2019-02-21T05:05:56.840Z,101928.81
2019-02-21T05:07:03.994Z,101930.91
2019-02-21T05:08:11.100Z,101934.75
2019-02-21T05:09:17.955Z,101933.06
2019-02-21T05:10:24.632Z,101926.70
2019-02-21T05:11:31.594Z,101925.84
2019-02-21T05:12:38.305Z,101927.14
2019-02-21T05:13:45.220Z,101927.11
2019-02-21T05:14:52.482Z,101924.97
2019-02-21T05:15:59.187Z,101927.52
2019-02-21T05:17:05.975Z,101923.75
2019-02-21T05:18:12.721Z,101929.24
2019-02-21T05:19:19.903Z,101931.36
2019-02-21T05:20:27.007Z,101931.78
2019-02-21T05:21:34.068Z,101935.62
2019-02-21T05:22:41.147Z,101934.34
2019-02-21T05:23:48.418Z,101927.59
2019-02-21T05:24:55.206Z,101924.16
2019-02-21T05:26:02.231Z,101929.66
2019-02-21T05:27:16.562Z,101930.09
2019-02-21T05:28:33.563Z,101923.30
2019-02-21T05:29:40.335Z,101927.11
2019-02-21T05:30:48.354Z,101925.02
2019-02-21T05:32:16.931Z,101924.57
2019-02-21T05:33:54.673Z,101924.62
2019-02-21T05:35:10.982Z,101920.81
2019-02-21T05:36:35.142Z,101925.05
2019-02-21T05:37:48.014Z,101928.84
2019-02-21T05:39:14.243Z,101923.76
2019-02-21T05:40:42.547Z,101922.51
2019-02-21T05:42:11.562Z,101927.19
2019-02-21T05:43:31.748Z,101930.64
2019-02-21T05:44:52.118Z,101932.80
2019-02-21T05:46:18.061Z,101929.83
2019-02-21T05:47:39.851Z,101928.57
2019-02-21T05:49:01.187Z,101928.98
2019-02-21T05:50:21.224Z,101930.26
2019-02-21T05:51:49.415Z,101933.23
2019-02-21T05:53:10.124Z,101934.55
2019-02-21T05:54:36.016Z,101932.42
2019-02-21T05:55:49.045Z,101937.52
2019-02-21T05:57:17.434Z,101935.84
2019-02-21T05:58:52.057Z,101941.40
2019-02-21T06:00:16.353Z,101941.40
2019-02-21T06:01:41.898Z,101943.94
2019-02-21T06:03:13.473Z,101942.67
2019-02-21T06:04:37.667Z,101937.17
2019-02-21T06:06:09.375Z,101939.28
2019-02-21T06:07:41.495Z,101931.65
2019-02-21T06:09:03.908Z,101937.19
2019-02-21T06:10:44.624Z,101935.48
2019-02-21T06:12:11.140Z,101935.06
2019-02-21T06:13:36.664Z,101936.33
2019-02-21T06:14:52.293Z,101936.78
2019-02-21T06:16:20.990Z,101938.05
2019-02-21T06:17:46.524Z,101939.75
2019-02-21T06:19:05.591Z,101943.19
2019-02-21T06:20:33.570Z,101942.33
2019-02-21T06:22:10.179Z,101940.27
2019-02-21T06:23:29.418Z,101945.40
2019-02-21T06:25:07.406Z,101947.95
2019-02-21T06:26:35.805Z,101943.28
2019-02-21T06:27:51.010Z,101946.30
2019-02-21T06:29:17.355Z,101947.59
2019-02-21T06:30:33.251Z,101949.71
2019-02-21T06:31:39.997Z,101950.56
2019-02-21T06:32:47.527Z,101952.28
2019-02-21T06:33:54.457Z,101951.42
2019-02-21T06:35:02.843Z,101954.40
2019-02-21T06:36:09.955Z,101951.00
2019-02-21T06:37:16.761Z,101955.26
2019-02-21T06:38:23.813Z,101957.80
2019-02-21T06:39:30.528Z,101950.17
2019-02-21T06:40:38.065Z,101950.62
2019-02-21T06:41:44.830Z,101954.45
2019-02-21T06:42:51.958Z,101958.28
2019-02-21T06:43:58.735Z,101958.27
2019-02-21T06:45:06.027Z,101948.52
2019-02-21T06:46:13.793Z,101960.40
2019-02-21T06:47:21.268Z,101959.54
2019-02-21T06:48:27.964Z,101957.02
2019-02-21T06:49:34.685Z,101961.70
2019-02-21T06:50:41.787Z,101963.38
2019-02-21T06:51:48.695Z,101957.89
2019-02-21T06:52:55.360Z,101970.63
2019-02-21T06:54:02.111Z,101962.58
2019-02-21T06:55:09.164Z,101970.23
2019-02-21T06:56:16.064Z,101966.83
2019-02-21T06:57:22.768Z,101970.22
2019-02-21T06:58:29.560Z,101966.41
2019-02-21T06:59:43.269Z,101966.87
2019-02-21T07:00:46.253Z,101963.48
2019-02-21T07:01:53.647Z,101968.58
2019-02-21T07:03:00.705Z,101962.22
2019-02-21T07:04:07.792Z,101977.52
2019-02-21T07:05:15.198Z,101964.80
2019-02-21T07:06:31.543Z,101966.10
2019-02-21T07:07:30.908Z,101963.58
2019-02-21T07:08:40.011Z,101965.69
2019-02-21T07:09:46.440Z,101963.98
2019-02-21T07:10:53.821Z,101966.10
2019-02-21T07:12:00.493Z,101963.08
2019-02-21T07:13:07.198Z,101968.18
2019-02-21T07:14:14.078Z,101966.91
2019-02-21T07:15:21.068Z,101972.87
2019-02-21T07:16:27.777Z,101973.70
2019-02-21T07:17:34.872Z,101975.41
2019-02-21T07:18:41.715Z,101985.61
2019-02-21T07:19:48.547Z,101983.08
2019-02-21T07:20:55.556Z,101977.14
2019-02-21T07:22:02.296Z,101975.03
2019-02-21T07:23:11.254Z,101977.19
2019-02-21T07:24:18.209Z,101982.30
2019-02-21T07:25:32.443Z,101979.34
2019-02-21T07:26:39.468Z,101982.35
2019-02-21T07:27:46.251Z,101981.52
2019-02-21T07:28:53.295Z,101981.55
2019-02-21T07:29:59.975Z,101981.14
2019-02-21T07:31:06.904Z,101987.11
2019-02-21T07:32:14.047Z,101987.55
2019-02-21T07:33:28.582Z,101993.09
2019-02-21T07:34:30.493Z,101989.27
2019-02-21T07:35:37.486Z,101997.77
2019-02-21T07:36:44.272Z,101997.80
2019-02-21T07:37:51.043Z,101999.52
2019-02-21T07:39:13.628Z,102005.05
2019-02-21T07:40:06.915Z,102005.07
2019-02-21T07:41:14.151Z,101995.72
2019-02-21T07:42:21.618Z,101994.45
2019-02-21T07:43:28.693Z,101998.30
2019-02-21T07:44:35.444Z,101999.98
2019-02-21T07:45:42.784Z,101995.31
2019-02-21T07:46:49.562Z,102002.55
2019-02-21T07:47:56.308Z,102002.55
2019-02-21T07:49:03.017Z,101998.31
2019-02-21T07:50:09.755Z,101997.04
2019-02-21T07:51:16.521Z,101995.77
2019-02-21T07:52:23.215Z,102001.77
2019-02-21T07:53:29.945Z,102007.72
2019-02-21T07:54:38.810Z,102015.86
2019-02-21T07:55:45.961Z,102009.48
2019-02-21T07:56:52.657Z,102007.79
2019-02-21T07:57:59.685Z,102012.08
2019-02-21T07:59:06.756Z,102013.36
2019-02-21T08:00:14.480Z,102015.92
2019-02-21T08:01:21.800Z,102026.14
2019-02-21T08:02:28.508Z,102028.69
2019-02-21T08:03:43.854Z,102026.13
2019-02-21T08:04:44.411Z,102025.28
2019-02-21T08:05:51.916Z,102033.80
2019-02-21T08:06:58.716Z,102031.67
2019-02-21T08:08:05.449Z,102041.91
2019-02-21T08:09:12.237Z,102045.31
2019-02-21T08:10:21.130Z,102041.91
2019-02-21T08:11:27.862Z,102047.02
2019-02-21T08:12:34.533Z,102038.92
2019-02-21T08:13:41.220Z,102038.52
2019-02-21T08:14:48.219Z,102036.82
2019-02-21T08:15:54.914Z,102038.14
2019-02-21T08:17:02.196Z,102045.80
2019-02-21T08:18:09.231Z,102050.02
2019-02-21T08:19:16.012Z,102060.25
2019-02-21T08:20:33.187Z,102052.58
2019-02-21T08:21:32.112Z,102052.99
2019-02-21T08:22:39.179Z,102050.45
2019-02-21T08:23:50.636Z,102050.91
2019-02-21T08:24:56.651Z,102052.18
2019-02-21T08:26:03.812Z,102058.16
2019-02-21T08:27:10.915Z,102058.16
2019-02-21T08:28:17.662Z,102050.95
2019-02-21T08:29:24.370Z,102053.50
2019-02-21T08:30:33.053Z,102058.17
2019-02-21T08:31:40.348Z,102056.03
2019-02-21T08:33:21.049Z,102059.88
2019-02-21T08:34:34.430Z,102056.88
2019-02-21T08:35:41.490Z,102057.74
2019-02-21T08:36:48.318Z,102067.92
2019-02-21T08:37:55.007Z,102059.00
2019-02-21T08:39:01.701Z,102059.42
2019-02-21T08:40:08.780Z,102064.54
2019-02-21T08:41:16.255Z,102059.44
2019-02-21T08:42:23.111Z,102064.94
2019-02-21T08:43:30.126Z,102069.63
2019-02-21T08:44:39.355Z,102059.44
2019-02-21T08:45:46.442Z,102063.27
2019-02-21T08:46:53.581Z,102061.60
2019-02-21T08:48:00.811Z,102067.57
2019-02-21T08:49:07.555Z,102068.06
2019-02-21T08:50:14.730Z,102071.91
2019-02-21T08:51:21.596Z,102080.80
2019-02-21T08:52:30.074Z,102071.05
2019-02-21T08:53:37.002Z,102077.87
2019-02-21T08:54:44.507Z,102079.16
2019-02-21T08:55:51.254Z,102079.17
2019-02-21T08:56:57.906Z,102078.77
2019-02-21T08:58:07.761Z,102083.46
2019-02-21T08:59:13.495Z,102083.10
2019-02-21T09:00:20.898Z,102084.39
2019-02-21T09:01:27.679Z,102081.44
2019-02-21T09:02:35.999Z,102077.61
2019-02-21T09:03:43.156Z,102083.98
2019-02-21T09:04:50.233Z,102090.40
2019-02-21T09:05:57.072Z,102090.42
2019-02-21T09:07:03.757Z,102087.84
2019-02-21T09:08:10.646Z,102085.74
2019-02-21T09:09:17.374Z,102085.74
2019-02-21T09:10:24.551Z,102082.78
2019-02-21T09:11:33.426Z,102085.36
2019-02-21T09:12:40.440Z,102091.33
2019-02-21T09:13:47.163Z,102093.44
2019-02-21T09:14:53.855Z,102087.48
2019-02-21T09:16:00.548Z,102089.19
2019-02-21T09:17:07.607Z,102093.86
2019-02-21T09:18:14.394Z,102091.30
2019-02-21T09:19:21.772Z,102093.05
2019-02-21T09:20:28.804Z,102096.02
2019-02-21T09:21:35.512Z,102089.66
2019-02-21T09:22:42.245Z,102090.54
2019-02-21T09:23:49.311Z,102091.39
2019-02-21T09:24:56.187Z,102085.86
2019-02-21T09:26:02.897Z,102086.75
2019-02-21T09:27:09.569Z,102090.16
2019-02-21T09:28:16.723Z,102089.70
2019-02-21T09:29:23.377Z,102082.06
2019-02-21T09:30:30.094Z,102083.77
2019-02-21T09:31:36.849Z,102085.06
2019-02-21T09:32:43.622Z,102084.65
2019-02-21T09:33:51.179Z,102092.30
2019-02-21T09:34:58.873Z,102092.30
2019-02-21T09:36:05.978Z,102093.58
2019-02-21T09:37:12.726Z,102090.65
2019-02-21T09:38:19.709Z,102096.62
2019-02-21T09:39:26.790Z,102094.97
2019-02-21T09:40:33.614Z,102097.97
2019-02-21T09:41:40.669Z,102094.60
2019-02-21T09:42:47.826Z,102092.48
2019-02-21T09:43:54.577Z,102095.48
2019-02-21T09:45:01.233Z,102087.41
2019-02-21T09:46:08.375Z,102092.08
2019-02-21T09:47:15.107Z,102084.84
2019-02-21T09:48:22.081Z,102084.84
2019-02-21T09:49:28.775Z,102095.08
2019-02-21T09:50:35.729Z,102088.27
2019-02-21T09:51:42.414Z,102089.94
2019-02-21T09:52:49.476Z,102092.09
2019-02-21T09:53:56.152Z,102099.75
2019-02-21T09:55:02.851Z,102098.47
2019-02-21T09:56:09.896Z,102089.08
2019-02-21T09:57:16.688Z,102088.23
2019-02-21T09:58:23.370Z,102094.21
2019-02-21T09:59:30.047Z,102090.36
2019-02-21T10:00:37.042Z,102094.22
2019-02-21T10:01:44.161Z,102099.77
2019-02-21T10:02:54.344Z,102104.03
2019-02-21T10:03:59.487Z,102098.89
2019-02-21T10:05:06.279Z,102095.50
2019-02-21T10:06:12.936Z,102094.63
2019-02-21T10:07:20.468Z,102086.12
2019-02-21T10:08:27.554Z,102091.24
2019-02-21T10:09:34.624Z,102089.55
2019-02-21T10:10:41.308Z,102090.83
2019-02-21T10:11:48.841Z,102100.63
2019-02-21T10:12:56.183Z,102098.50
2019-02-21T10:14:03.041Z,102094.66
2019-02-21T10:15:10.456Z,102093.83
2019-02-21T10:16:17.502Z,102092.13
2019-02-21T10:17:24.279Z,102094.23
2019-02-21T10:18:31.663Z,102099.81
2019-02-21T10:19:38.729Z,102099.39
2019-02-21T10:20:45.447Z,102098.53
2019-02-21T10:21:52.134Z,102101.52
2019-02-21T10:22:59.152Z,102097.70
2019-02-21T10:24:06.387Z,102098.52
2019-02-21T10:25:25.317Z,102101.50
2019-02-21T10:26:32.047Z,102096.78
2019-02-21T10:27:38.735Z,102095.95
2019-02-21T10:28:45.482Z,102099.36
2019-02-21T10:29:53.039Z,102099.33
2019-02-21T10:30:59.788Z,102091.66
2019-02-21T10:32:06.812Z,102094.64
2019-02-21T10:33:13.584Z,102092.92
2019-02-21T10:34:42.508Z,102093.73
2019-02-21T10:35:40.563Z,102091.19
2019-02-21T10:36:47.642Z,102092.05
2019-02-21T10:37:54.443Z,102089.91
2019-02-21T10:39:01.481Z,102084.34
2019-02-21T10:40:09.912Z,102087.34
2019-02-21T10:41:16.650Z,102087.73
2019-02-21T10:42:24.334Z,102090.27
2019-02-21T10:43:32.616Z,102089.42
2019-02-21T10:44:39.354Z,102086.00
2019-02-21T10:45:48.192Z,102083.87
2019-02-21T10:46:54.813Z,102086.38
2019-02-21T10:48:02.060Z,102083.84
2019-02-21T10:49:08.895Z,102084.23
2019-02-21T10:50:18.656Z,102088.95
2019-02-21T10:51:25.599Z,102088.52
2019-02-21T10:52:32.369Z,102088.95
2019-02-21T10:53:39.403Z,102091.50
2019-02-21T10:54:46.465Z,102089.80
2019-02-21T10:55:53.549Z,102088.95
2019-02-21T10:57:00.280Z,102086.81
2019-02-21T10:58:07.164Z,102079.98
2019-02-21T10:59:14.223Z,102079.15
2019-02-21T11:00:25.019Z,102077.87
2019-02-21T11:01:31.730Z,102070.23
2019-02-21T11:02:38.461Z,102074.09
2019-02-21T11:03:45.651Z,102074.95
2019-02-21T11:04:55.051Z,102074.10
2019-02-21T11:06:01.085Z,102075.80
2019-02-21T11:07:07.957Z,102074.52
2019-02-21T11:08:14.681Z,102076.26
2019-02-21T11:09:23.668Z,102074.52
2019-02-21T11:10:30.925Z,102076.67
2019-02-21T11:11:38.006Z,102073.72
2019-02-21T11:12:44.711Z,102073.70
2019-02-21T11:13:51.477Z,102066.05
2019-02-21T11:14:58.290Z,102071.58
2019-02-21T11:16:05.363Z,102069.88
2019-02-21T11:17:12.129Z,102066.47
2019-02-21T11:18:19.164Z,102072.03
2019-02-21T11:19:25.842Z,102069.91
2019-02-21T11:20:32.996Z,102073.30
2019-02-21T11:21:40.124Z,102072.48
2019-02-21T11:22:47.187Z,102074.19
2019-02-21T11:23:53.858Z,102070.34
2019-02-21T11:25:00.574Z,102071.64
2019-02-21T11:26:07.641Z,102075.45
2019-02-21T11:27:14.343Z,102075.48
2019-02-21T11:28:21.462Z,102078.02
2019-02-21T11:29:28.174Z,102082.34
2019-02-21T11:30:35.613Z,102080.63
2019-02-21T11:31:42.294Z,102084.03
2019-02-21T11:32:49.471Z,102090.00
2019-02-21T11:33:56.923Z,102081.45
2019-02-21T11:35:06.560Z,102076.79
2019-02-21T11:36:12.501Z,102089.16
2019-02-21T11:37:19.343Z,102086.16
2019-02-21T11:38:27.111Z,102085.30
2019-02-21T11:39:33.807Z,102082.30
2019-02-21T11:40:41.134Z,102084.46
2019-02-21T11:41:47.976Z,102081.91
2019-02-21T11:42:54.980Z,102077.64
2019-02-21T11:44:02.002Z,102078.04
2019-02-21T11:45:10.934Z,102084.01
2019-02-21T11:46:18.005Z,102085.28
2019-02-21T11:47:24.756Z,102086.58
2019-02-21T11:48:32.021Z,102087.02
2019-02-21T11:49:38.695Z,102088.31
2019-02-21T11:50:45.421Z,102087.87
2019-02-21T11:51:52.274Z,102087.02
2019-02-21T11:52:59.723Z,102082.74
2019-02-21T11:54:06.803Z,102083.17
2019-02-21T11:55:17.658Z,102086.99
2019-02-21T11:56:24.401Z,102092.14
2019-02-21T11:57:31.181Z,102082.31
2019-02-21T11:58:38.173Z,102082.72
2019-02-21T11:59:44.940Z,102083.58
2019-02-21T12:00:51.660Z,102082.73
2019-02-21T12:01:58.369Z,102086.98
2019-02-21T12:03:05.071Z,102092.11
2019-02-21T12:04:12.132Z,102086.11
2019-02-21T12:05:30.148Z,102089.50
2019-02-21T12:06:27.747Z,102092.50
2019-02-21T12:07:34.654Z,102095.49
2019-02-21T12:08:41.441Z,102100.20
2019-02-21T12:09:48.256Z,102097.23
2019-02-21T12:10:54.995Z,102098.92
2019-02-21T12:12:01.692Z,102087.80
2019-02-21T12:13:08.393Z,102087.40
2019-02-21T12:14:15.424Z,102095.08
2019-02-21T12:15:22.141Z,102095.05
2019-02-21T12:16:29.256Z,102095.91
2019-02-21T12:17:35.965Z,102095.50
2019-02-21T12:18:42.661Z,102094.19
2019-02-21T12:19:49.424Z,102101.88
2019-02-21T12:20:56.500Z,102103.59
2019-02-21T12:22:03.285Z,102100.19
2019-02-21T12:23:10.008Z,102097.16
2019-02-21T12:24:17.097Z,102102.72
2019-02-21T12:25:23.930Z,102098.45
2019-02-21T12:26:30.630Z,102097.59
2019-02-21T12:27:37.410Z,102095.47
2019-02-21T12:28:44.776Z,102089.88
2019-02-21T12:29:51.566Z,102093.76
2019-02-21T12:30:58.269Z,102086.91
2019-02-21T12:32:04.980Z,102086.06
2019-02-21T12:33:12.503Z,102083.91
2019-02-21T12:34:19.956Z,102084.75
2019-02-21T12:35:30.006Z,102092.00
2019-02-21T12:36:35.129Z,102089.00
2019-02-21T12:37:42.544Z,102089.84
2019-02-21T12:38:49.697Z,102098.81
2019-02-21T12:39:56.805Z,102100.50
2019-02-21T12:41:03.846Z,102100.50
2019-02-21T12:42:10.966Z,102091.92
2019-02-21T12:43:17.694Z,102090.20
2019-02-21T12:44:24.539Z,102092.33
2019-02-21T12:45:31.516Z,102098.78
2019-02-21T12:46:38.274Z,102097.91
2019-02-21T12:47:50.753Z,102096.17
2019-02-21T12:48:53.482Z,102095.25
2019-02-21T12:50:00.367Z,102093.07
2019-02-21T12:51:07.192Z,102089.56
2019-02-21T12:52:13.875Z,102092.56
2019-02-21T12:53:20.877Z,102092.08
2019-02-21T12:54:27.637Z,102096.25
2019-02-21T12:55:34.636Z,102093.56
2019-02-21T12:56:41.723Z,102098.16
2019-02-21T12:57:48.448Z,102097.69
2019-02-21T12:58:55.161Z,102095.96
2019-02-21T13:00:02.254Z,102098.48